Time;durP1;ratioP1;P1;durP2;ratioP2;P2;SDS_P1;SDS_P2;PMS_P1;PMS_P2;Temp;Humidity;BMP_temperature;BMP_pressure;BME280_temperature;BME280_humidity;BME280_pressure;Samples;Min_cycle;Max_cycle;Signal;HPM_P1;HPM_P2
2023/11/10 00:01:13;;;;;;;2.90;2.90;;;21.70;71.30;;;;;;5023667;28;20457;-65
2023/11/10 00:03:40;;;;;;;3.13;3.03;;;21.70;71.20;;;;;;5026101;28;20568;-64
2023/11/10 00:06:08;;;;;;;3.10;3.00;;;21.70;71.30;;;;;;5027045;28;20491;-64
2023/11/10 00:08:35;;;;;;;3.10;3.10;;;21.60;71.20;;;;;;5024300;28;20441;-64
2023/11/10 00:11:02;;;;;;;3.07;2.97;;;21.70;71.30;;;;;;5023532;28;20477;-65
2023/11/10 00:13:30;;;;;;;3.10;3.00;;;21.60;71.30;;;;;;5024547;28;20880;-65
2023/11/10 00:15:57;;;;;;;2.47;2.47;;;21.60;71.20;;;;;;5026752;28;20473;-64
2023/11/10 00:18:24;;;;;;;2.97;2.97;;;21.60;71.20;;;;;;5020041;28;20514;-65
2023/11/10 00:20:51;;;;;;;3.00;2.90;;;21.60;71.20;;;;;;5026989;28;20469;-63
2023/11/10 00:23:18;;;;;;;2.93;2.83;;;21.60;71.20;;;;;;5018906;28;20506;-65
2023/11/10 00:25:45;;;;;;;3.37;3.27;;;21.60;71.30;;;;;;5026504;28;20447;-65
2023/11/10 00:28:12;;;;;;;2.73;2.63;;;21.60;71.20;;;;;;5026691;28;20524;-64
2023/11/10 00:30:40;;;;;;;2.87;2.87;;;21.60;71.20;;;;;;5023536;28;20945;-65
2023/11/10 00:33:07;;;;;;;3.13;3.03;;;21.60;71.20;;;;;;5022496;28;20520;-64
2023/11/10 00:35:34;;;;;;;3.40;3.30;;;21.60;71.30;;;;;;5025303;28;20473;-64
2023/11/10 00:38:00;;;;;;;2.87;2.87;;;21.60;71.30;;;;;;5023176;28;20566;-65
2023/11/10 00:40:27;;;;;;;3.50;3.40;;;21.60;71.30;;;;;;5024574;28;20481;-64
2023/11/10 00:42:54;;;;;;;3.70;3.00;;;21.60;71.40;;;;;;5025224;28;20457;-64
2023/11/10 00:45:21;;;;;;;2.93;2.83;;;21.60;71.40;;;;;;5023237;28;20473;-65
2023/11/10 00:47:49;;;;;;;2.80;2.80;;;21.60;71.50;;;;;;5026344;28;20479;-65
2023/11/10 00:50:16;;;;;;;2.70;2.70;;;21.60;71.50;;;;;;5026334;28;20879;-64
2023/11/10 00:52:43;;;;;;;3.50;3.40;;;21.60;71.50;;;;;;5014688;28;20485;-64
2023/11/10 00:55:10;;;;;;;2.70;2.70;;;21.60;71.50;;;;;;5022147;28;20486;-64
2023/11/10 00:57:37;;;;;;;3.40;3.40;;;21.60;71.50;;;;;;5025269;28;20486;-65
2023/11/10 01:00:06;;;;;;;2.60;2.60;;;21.50;71.50;;;;;;5025574;28;20515;-65
2023/11/10 01:02:33;;;;;;;3.13;3.03;;;21.50;71.50;;;;;;5022850;28;20480;-64
2023/11/10 01:05:01;;;;;;;3.50;3.30;;;21.50;71.40;;;;;;5022172;28;20957;-64
2023/11/10 01:07:28;;;;;;;2.97;2.90;;;21.50;71.60;;;;;;5023986;28;20456;-64
2023/11/10 01:09:55;;;;;;;2.67;2.63;;;21.50;71.50;;;;;;5025901;28;20492;-65
2023/11/10 01:12:22;;;;;;;3.13;3.10;;;21.50;71.40;;;;;;5025078;28;20889;-65
2023/11/10 01:14:49;;;;;;;2.77;2.67;;;21.50;71.50;;;;;;5021703;28;20462;-64
2023/11/10 01:17:16;;;;;;;3.10;2.90;;;21.50;71.50;;;;;;5022315;28;20496;-65
2023/11/10 01:19:43;;;;;;;2.90;2.80;;;21.50;71.50;;;;;;5025642;28;20476;-64
2023/11/10 01:22:11;;;;;;;2.90;2.80;;;21.50;71.50;;;;;;5025666;28;20446;-64
2023/11/10 01:24:39;;;;;;;3.07;3.07;;;21.50;71.50;;;;;;5022295;28;20463;-64
2023/11/10 01:27:07;;;;;;;2.90;2.80;;;21.50;71.50;;;;;;5022147;28;20446;-65
2023/11/10 01:29:34;;;;;;;3.07;2.97;;;21.50;71.60;;;;;;5024092;28;20812;-65
2023/11/10 01:32:01;;;;;;;3.00;3.00;;;21.50;71.50;;;;;;5025339;28;20441;-64
2023/11/10 01:34:27;;;;;;;2.50;2.50;;;21.50;71.60;;;;;;5023623;28;20484;-64
2023/11/10 01:36:54;;;;;;;3.50;3.40;;;21.50;71.50;;;;;;5022023;28;20475;-65
2023/11/10 01:39:23;;;;;;;2.40;2.40;;;21.50;71.60;;;;;;5022011;28;20509;-64
2023/11/10 01:41:49;;;;;;;2.40;2.40;;;21.50;71.50;;;;;;5020927;28;20492;-64
2023/11/10 01:44:17;;;;;;;2.93;2.83;;;21.50;71.50;;;;;;5021805;28;20506;-64
2023/11/10 01:46:47;;;;;;;2.70;2.60;;;21.50;71.50;;;;;;5024992;28;20453;-64
2023/11/10 01:49:15;;;;;;;3.00;2.90;;;21.50;71.50;;;;;;5025597;28;20612;-64
2023/11/10 01:51:43;;;;;;;2.60;2.60;;;21.50;71.50;;;;;;5021267;28;20442;-64
2023/11/10 01:54:14;;;;;;;3.13;3.03;;;21.50;71.50;;;;;;5021502;28;20465;-65
2023/11/10 01:56:43;;;;;;;3.40;3.20;;;21.50;71.60;;;;;;5024340;28;20480;-64
2023/11/10 01:59:14;;;;;;;3.70;3.27;;;21.50;71.50;;;;;;5024988;28;20505;-63
2023/11/10 02:01:41;;;;;;;3.40;3.30;;;21.50;71.50;;;;;;5021453;28;20464;-65
2023/11/10 02:04:11;;;;;;;2.80;2.80;;;21.50;71.60;;;;;;5021337;28;21049;-64
2023/11/10 02:06:39;;;;;;;2.80;2.70;;;21.40;71.40;;;;;;5023715;28;20450;-64
2023/11/10 02:09:06;;;;;;;3.10;3.00;;;21.40;71.50;;;;;;5024825;28;20559;-64
2023/11/10 02:11:33;;;;;;;3.30;2.87;;;21.40;71.40;;;;;;5019107;28;20871;-65
2023/11/10 02:14:02;;;;;;;2.80;2.80;;;21.40;71.50;;;;;;5021307;28;20524;-65
2023/11/10 02:16:29;;;;;;;2.80;2.80;;;21.50;71.50;;;;;;5022150;28;20470;-65
2023/11/10 02:18:56;;;;;;;2.80;2.70;;;21.50;71.50;;;;;;5024677;28;20551;-64
2023/11/10 02:21:23;;;;;;;2.90;2.80;;;21.40;71.30;;;;;;5023531;28;20496;-65
2023/11/10 02:23:52;;;;;;;2.73;2.63;;;21.40;71.30;;;;;;5021029;28;20486;-64
2023/11/10 02:26:20;;;;;;;2.70;2.70;;;21.40;71.30;;;;;;5021102;28;20562;-65
2023/11/10 02:28:48;;;;;;;2.80;2.70;;;21.50;71.40;;;;;;5024419;28;20468;-65
2023/11/10 02:31:16;;;;;;;3.13;3.03;;;21.40;71.30;;;;;;5023761;28;20485;-66
2023/11/10 02:33:43;;;;;;;2.97;2.87;;;21.40;71.40;;;;;;5021144;28;20501;-65
2023/11/10 02:36:10;;;;;;;3.33;2.87;;;21.40;71.40;;;;;;5020889;28;20968;-64
2023/11/10 02:38:37;;;;;;;3.00;2.90;;;21.40;71.50;;;;;;5023071;28;20539;-65
2023/11/10 02:41:05;;;;;;;2.90;2.90;;;21.40;71.60;;;;;;5023577;28;20931;-65
2023/11/10 02:43:33;;;;;;;2.93;2.83;;;21.40;71.50;;;;;;5022515;28;20469;-64
2023/11/10 02:46:00;;;;;;;3.00;2.90;;;21.40;71.60;;;;;;5020755;28;20480;-64
2023/11/10 02:48:27;;;;;;;3.00;2.80;;;21.40;71.60;;;;;;5021331;28;20870;-64
2023/11/10 02:50:54;;;;;;;2.80;2.80;;;21.40;71.50;;;;;;5014981;28;20481;-64
2023/11/10 02:53:21;;;;;;;3.13;2.80;;;21.40;71.60;;;;;;5017066;28;20577;-65
2023/11/10 02:55:48;;;;;;;2.73;2.73;;;21.40;71.50;;;;;;5012520;28;20522;-65
2023/11/10 02:58:16;;;;;;;2.90;2.80;;;21.40;71.60;;;;;;5020594;28;20545;-65
2023/11/10 03:00:44;;;;;;;2.90;2.80;;;21.40;71.60;;;;;;5020092;28;20472;-64
2023/11/10 03:03:11;;;;;;;2.70;2.70;;;21.40;71.50;;;;;;5023925;28;20493;-64
2023/11/10 03:05:39;;;;;;;3.03;3.03;;;21.40;71.60;;;;;;5021775;28;20480;-64
2023/11/10 03:08:06;;;;;;;2.50;2.50;;;21.40;72.00;;;;;;5020357;28;21168;-64
2023/11/10 03:10:33;;;;;;;2.80;2.70;;;21.40;72.40;;;;;;5020820;28;20438;-64
2023/11/10 03:13:00;;;;;;;3.10;3.00;;;21.40;72.50;;;;;;5023641;28;20519;-64
2023/11/10 03:15:27;;;;;;;2.83;2.73;;;21.40;72.60;;;;;;5022926;28;20477;-64
2023/11/10 03:17:56;;;;;;;2.60;2.60;;;21.40;72.70;;;;;;5020253;28;20942;-64
2023/11/10 03:20:23;;;;;;;3.20;2.90;;;21.40;72.80;;;;;;5019724;28;20535;-64
2023/11/10 03:22:50;;;;;;;2.90;2.80;;;21.30;72.70;;;;;;5012181;28;20575;-65
2023/11/10 03:25:17;;;;;;;2.77;2.77;;;21.30;72.70;;;;;;5019394;28;20485;-65
2023/11/10 03:27:44;;;;;;;2.87;2.80;;;21.40;72.80;;;;;;5023010;28;20491;-65
2023/11/10 03:30:12;;;;;;;2.73;2.63;;;21.40;72.80;;;;;;5021761;28;20476;-64
2023/11/10 03:32:39;;;;;;;2.90;2.80;;;21.30;72.60;;;;;;5022082;28;20934;-64
2023/11/10 03:35:08;;;;;;;3.57;3.37;;;21.40;72.60;;;;;;5023282;28;20960;-65
2023/11/10 03:37:35;;;;;;;2.70;2.70;;;21.30;72.50;;;;;;5021573;28;20433;-65
2023/11/10 03:40:04;;;;;;;2.87;2.60;;;21.30;72.60;;;;;;5019819;28;20556;-65
2023/11/10 03:42:32;;;;;;;2.60;2.50;;;21.30;72.50;;;;;;5019281;28;20888;-64
2023/11/10 03:44:58;;;;;;;3.23;3.03;;;21.30;72.50;;;;;;5023283;28;20448;-65
2023/11/10 03:47:25;;;;;;;2.90;2.67;;;21.40;72.70;;;;;;5022869;28;20473;-65
2023/11/10 03:49:52;;;;;;;3.00;2.90;;;21.40;72.60;;;;;;5008832;28;20473;-65
2023/11/10 03:52:21;;;;;;;2.93;2.83;;;21.30;72.50;;;;;;5023206;28;20489;-65
2023/11/10 03:54:48;;;;;;;3.03;2.93;;;21.30;72.40;;;;;;5019879;28;20442;-64
2023/11/10 03:57:14;;;;;;;3.17;2.97;;;21.30;72.40;;;;;;5019708;28;21005;-65
2023/11/10 03:59:41;;;;;;;2.47;2.47;;;21.30;72.30;;;;;;5021597;28;20925;-65
2023/11/10 04:02:09;;;;;;;2.60;2.60;;;21.30;72.40;;;;;;5023047;28;20473;-65
2023/11/10 04:04:36;;;;;;;2.90;2.80;;;21.30;72.50;;;;;;5021413;28;20441;-65
2023/11/10 04:07:04;;;;;;;3.03;3.03;;;21.30;72.20;;;;;;5018300;28;20554;-65
2023/11/10 04:09:34;;;;;;;2.70;2.67;;;21.30;72.20;;;;;;5020562;28;20452;-65
2023/11/10 04:12:01;;;;;;;2.90;2.80;;;21.30;72.20;;;;;;5020996;28;20482;-64
2023/11/10 04:14:28;;;;;;;3.07;2.87;;;21.30;72.10;;;;;;5019988;28;20522;-64
2023/11/10 04:16:56;;;;;;;2.80;2.80;;;21.30;72.00;;;;;;5021688;28;20469;-65
2023/11/10 04:19:23;;;;;;;3.17;3.07;;;21.30;72.00;;;;;;5019901;28;20568;-63
2023/11/10 04:21:50;;;;;;;2.90;2.90;;;21.30;72.10;;;;;;5022713;28;20917;-64
2023/11/10 04:24:18;;;;;;;2.77;2.67;;;21.30;72.00;;;;;;5022826;28;20991;-65
2023/11/10 04:26:47;;;;;;;2.70;2.60;;;21.30;71.90;;;;;;5020449;28;20447;-65
2023/11/10 04:29:14;;;;;;;2.90;2.80;;;21.30;71.80;;;;;;5019019;28;20489;-64
2023/11/10 04:31:41;;;;;;;2.83;2.77;;;21.30;71.70;;;;;;5021426;28;20482;-64
2023/11/10 04:34:08;;;;;;;3.30;3.20;;;21.30;71.60;;;;;;5022705;28;20500;-64
2023/11/10 04:36:39;;;;;;;3.83;3.73;;;21.30;71.50;;;;;;5024445;28;20524;-64
2023/11/10 04:39:07;;;;;;;3.63;3.10;;;21.30;71.50;;;;;;5014253;28;20453;-64
2023/11/10 04:41:34;;;;;;;2.90;2.90;;;21.30;71.60;;;;;;5019993;28;20475;-64
2023/11/10 04:44:02;;;;;;;3.83;3.63;;;21.30;71.50;;;;;;5023002;28;20520;-64
2023/11/10 04:46:30;;;;;;;3.10;3.00;;;21.20;71.30;;;;;;5023386;28;21041;-64
2023/11/10 04:48:57;;;;;;;2.97;2.97;;;21.20;71.30;;;;;;5014659;28;20459;-64
2023/11/10 04:51:24;;;;;;;2.83;2.83;;;21.30;71.30;;;;;;5018953;28;20485;-64
2023/11/10 04:53:51;;;;;;;2.70;2.70;;;21.30;71.30;;;;;;5017341;28;20476;-64
2023/11/10 04:56:18;;;;;;;3.03;2.93;;;21.30;71.30;;;;;;5026096;28;20471;-64
2023/11/10 04:58:45;;;;;;;3.20;3.13;;;21.20;71.20;;;;;;5023694;28;20448;-64
2023/11/10 05:01:14;;;;;;;3.10;3.00;;;21.30;71.40;;;;;;5022622;28;21047;-64
2023/11/10 05:03:42;;;;;;;2.80;2.80;;;21.30;71.40;;;;;;5012336;28;20473;-64
2023/11/10 05:06:09;;;;;;;5.57;3.50;;;21.20;71.30;;;;;;5025953;28;20448;-64
2023/11/10 05:08:36;;;;;;;3.10;3.10;;;21.30;71.40;;;;;;5024489;28;20476;-65
2023/11/10 05:11:03;;;;;;;3.37;3.20;;;21.30;71.30;;;;;;5022645;28;20469;-64
2023/11/10 05:13:30;;;;;;;3.60;3.50;;;21.20;71.30;;;;;;5022090;28;20552;-64
2023/11/10 05:15:57;;;;;;;3.30;3.20;;;21.30;71.30;;;;;;5025737;28;20468;-64
2023/11/10 05:18:27;;;;;;;3.40;3.30;;;21.20;71.30;;;;;;5026246;28;20449;-65
2023/11/10 05:20:55;;;;;;;3.67;3.67;;;21.30;71.40;;;;;;5015320;28;21010;-64
2023/11/10 05:23:22;;;;;;;3.60;3.50;;;21.30;71.30;;;;;;5021915;28;20523;-65
2023/11/10 05:25:49;;;;;;;3.33;3.33;;;21.30;71.40;;;;;;5022585;28;20477;-64
2023/11/10 05:28:16;;;;;;;4.00;3.83;;;21.30;71.50;;;;;;5022364;28;20457;-64
2023/11/10 05:30:43;;;;;;;3.40;3.20;;;21.30;71.50;;;;;;5024310;28;20466;-64
2023/11/10 05:33:10;;;;;;;3.40;3.30;;;21.30;71.50;;;;;;5017425;28;20504;-65
2023/11/10 05:35:38;;;;;;;3.30;3.30;;;21.30;71.50;;;;;;5023937;28;20453;-64
2023/11/10 05:38:06;;;;;;;2.80;2.80;;;21.30;71.40;;;;;;5022060;28;20788;-65
2023/11/10 05:40:33;;;;;;;2.87;2.87;;;21.30;71.40;;;;;;5022511;28;20478;-64
2023/11/10 05:43:01;;;;;;;4.20;3.10;;;21.30;71.20;;;;;;5018273;28;20480;-64
2023/11/10 05:45:28;;;;;;;6.43;4.00;;;21.30;71.30;;;;;;5025169;28;20863;-64
2023/11/10 05:47:55;;;;;;;5.17;4.13;;;21.30;72.10;;;;;;5021223;28;20470;-64
2023/11/10 05:50:22;;;;;;;5.93;4.37;;;21.30;72.90;;;;;;5021189;28;20474;-64
2023/11/10 05:52:50;;;;;;;8.23;5.13;;;21.30;73.30;;;;;;5024254;28;20493;-65
2023/11/10 05:55:18;;;;;;;9.90;5.67;;;21.40;73.40;;;;;;5025070;28;20449;-65
2023/11/10 05:57:48;;;;;;;6.80;5.70;;;21.40;73.60;;;;;;5012943;28;20493;-65
2023/11/10 06:00:16;;;;;;;17.10;7.10;;;21.40;75.00;;;;;;5016474;28;20563;-64
2023/11/10 06:02:43;;;;;;;13.57;6.40;;;21.40;77.40;;;;;;5023129;28;20553;-64
2023/11/10 06:05:12;;;;;;;9.70;6.10;;;21.40;82.50;;;;;;5024873;28;20524;-64
2023/11/10 06:07:39;;;;;;;6.03;5.43;;;21.40;81.30;;;;;;5023437;28;20449;-65
2023/11/10 06:10:10;;;;;;;10.30;6.93;;;21.40;79.30;;;;;;5021378;28;20438;-64
2023/11/10 06:12:37;;;;;;;14.93;6.20;;;21.40;78.30;;;;;;5022249;28;20723;-65
2023/11/10 06:15:05;;;;;;;13.47;5.50;;;21.40;77.70;;;;;;5024565;28;20495;-64
2023/11/10 06:17:33;;;;;;;5.83;5.20;;;21.50;77.30;;;;;;5023977;28;20499;-64
2023/11/10 06:20:00;;;;;;;11.70;6.37;;;21.50;77.10;;;;;;5021212;28;20936;-65
2023/11/10 06:22:27;;;;;;;8.50;5.13;;;21.50;76.70;;;;;;5020879;28;20466;-64
2023/11/10 06:24:53;;;;;;;11.37;6.00;;;21.50;76.50;;;;;;5024149;28;20473;-64
2023/11/10 06:27:22;;;;;;;6.03;5.53;;;21.50;76.20;;;;;;5024303;28;20473;-65
2023/11/10 06:29:49;;;;;;;7.77;5.47;;;21.50;75.90;;;;;;5021651;28;20503;-64
2023/11/10 06:32:18;;;;;;;6.13;5.63;;;21.50;75.60;;;;;;5020671;28;20474;-64
2023/11/10 06:34:45;;;;;;;5.37;4.97;;;21.50;75.40;;;;;;5022642;28;20449;-64
2023/11/10 06:37:12;;;;;;;6.50;6.00;;;21.50;75.10;;;;;;5024108;28;20441;-64
2023/11/10 06:39:40;;;;;;;8.10;4.90;;;21.50;74.90;;;;;;5022763;28;20520;-64
2023/11/10 06:42:07;;;;;;;5.73;5.00;;;21.50;74.80;;;;;;5020536;28;20474;-64
2023/11/10 06:44:37;;;;;;;5.20;4.73;;;21.50;74.50;;;;;;5020899;28;20452;-64
2023/11/10 06:47:04;;;;;;;5.53;5.00;;;21.50;74.40;;;;;;5024062;28;20820;-65
2023/11/10 06:49:32;;;;;;;8.23;5.00;;;21.50;74.20;;;;;;5023896;28;20460;-65
2023/11/10 06:51:59;;;;;;;9.20;6.10;;;21.50;74.10;;;;;;5020236;28;20976;-64
2023/11/10 06:54:26;;;;;;;4.80;4.40;;;21.50;73.90;;;;;;5020377;28;20474;-65
2023/11/10 06:56:53;;;;;;;6.60;4.50;;;21.50;73.80;;;;;;5023386;28;20520;-64
2023/11/10 06:59:20;;;;;;;7.07;4.57;;;21.50;73.70;;;;;;5022988;28;20445;-65
2023/11/10 07:01:49;;;;;;;8.57;6.20;;;21.50;73.50;;;;;;5021299;28;20534;-65
2023/11/10 07:04:16;;;;;;;5.07;4.67;;;21.50;73.30;;;;;;5020199;28;20502;-65
2023/11/10 07:06:43;;;;;;;5.80;5.30;;;21.50;73.20;;;;;;5021654;28;20542;-64
2023/11/10 07:09:12;;;;;;;7.03;5.80;;;21.50;73.10;;;;;;5023574;28;20481;-65
2023/11/10 07:11:41;;;;;;;5.87;5.30;;;21.50;73.00;;;;;;5022357;28;20442;-65
2023/11/10 07:14:08;;;;;;;5.00;4.60;;;21.50;72.80;;;;;;5020086;28;20553;-65
2023/11/10 07:16:36;;;;;;;4.70;4.50;;;21.50;72.60;;;;;;5020433;28;20504;-64
2023/11/10 07:19:05;;;;;;;4.63;4.30;;;21.50;72.50;;;;;;5023418;28;20445;-64
2023/11/10 07:21:32;;;;;;;4.77;4.47;;;21.50;72.40;;;;;;5023127;28;20558;-64
2023/11/10 07:23:59;;;;;;;6.03;4.30;;;21.50;72.30;;;;;;5019902;28;20473;-65
2023/11/10 07:26:26;;;;;;;5.00;4.70;;;21.50;72.20;;;;;;5019960;28;20480;-65
2023/11/10 07:28:53;;;;;;;4.47;4.23;;;21.50;72.00;;;;;;5022576;28;20532;-65
2023/11/10 07:31:20;;;;;;;5.00;4.70;;;21.50;71.90;;;;;;5023145;28;20448;-64
2023/11/10 07:33:47;;;;;;;5.30;5.00;;;21.50;71.80;;;;;;5021040;28;20489;-65
2023/11/10 07:36:15;;;;;;;5.47;4.83;;;21.50;71.70;;;;;;5019730;28;20461;-65
2023/11/10 07:38:42;;;;;;;5.30;4.93;;;21.50;71.60;;;;;;5021029;28;20863;-65
2023/11/10 07:41:09;;;;;;;4.47;4.17;;;21.50;71.60;;;;;;5023029;28;20508;-65
2023/11/10 07:43:36;;;;;;;4.90;4.50;;;21.50;71.40;;;;;;5022498;28;20500;-65
2023/11/10 07:46:04;;;;;;;5.27;4.70;;;21.50;71.40;;;;;;5019658;28;20485;-65
2023/11/10 07:48:31;;;;;;;6.37;4.10;;;21.50;71.30;;;;;;5019699;28;20508;-65
2023/11/10 07:50:58;;;;;;;5.27;4.90;;;21.50;71.20;;;;;;5019867;28;20445;-65
2023/11/10 07:53:27;;;;;;;5.07;4.60;;;21.50;71.10;;;;;;5019626;28;20465;-64
2023/11/10 07:55:54;;;;;;;5.13;4.73;;;21.50;71.00;;;;;;5022337;28;20477;-65
2023/11/10 07:58:21;;;;;;;4.93;4.63;;;21.50;71.00;;;;;;5022968;28;20483;-65
2023/11/10 08:00:48;;;;;;;5.43;5.00;;;21.50;70.90;;;;;;5020804;28;20942;-64
2023/11/10 08:03:17;;;;;;;5.20;4.90;;;21.50;70.90;;;;;;5019349;28;20504;-64
2023/11/10 08:05:46;;;;;;;5.37;5.07;;;21.50;71.70;;;;;;5020947;28;20532;-65
2023/11/10 08:08:13;;;;;;;5.37;5.00;;;21.50;70.90;;;;;;5022957;28;20496;-65
2023/11/10 08:10:41;;;;;;;5.40;5.10;;;21.50;70.90;;;;;;5023649;28;20854;-64
2023/11/10 08:13:08;;;;;;;4.40;4.20;;;21.50;70.90;;;;;;5023293;28;21023;-65
2023/11/10 08:15:35;;;;;;;5.33;5.13;;;21.50;70.80;;;;;;5023427;28;20953;-64
2023/11/10 08:18:02;;;;;;;4.63;4.40;;;21.50;70.80;;;;;;5026681;28;20950;-65
2023/11/10 08:20:29;;;;;;;5.53;4.70;;;21.60;70.90;;;;;;5026665;28;20480;-65
2023/11/10 08:22:56;;;;;;;4.60;4.40;;;21.50;70.70;;;;;;5023350;28;20492;-65
2023/11/10 08:25:23;;;;;;;4.20;3.87;;;21.50;70.60;;;;;;5023182;28;20442;-64
2023/11/10 08:27:51;;;;;;;4.07;3.87;;;21.60;70.70;;;;;;5025254;28;20942;-65
2023/11/10 08:30:18;;;;;;;4.33;4.10;;;21.60;70.70;;;;;;5026449;28;20561;-65
2023/11/10 08:32:45;;;;;;;4.93;4.70;;;21.60;70.50;;;;;;5024720;28;20468;-65
2023/11/10 08:35:16;;;;;;;4.57;4.40;;;21.60;70.50;;;;;;5022951;28;20481;-65
2023/11/10 08:37:43;;;;;;;5.07;4.53;;;21.60;70.50;;;;;;5024184;28;20449;-64
2023/11/10 08:40:11;;;;;;;4.93;4.73;;;21.60;70.30;;;;;;5026283;28;20479;-64
2023/11/10 08:42:41;;;;;;;4.27;4.17;;;21.60;70.20;;;;;;5025607;28;20471;-65
2023/11/10 08:45:11;;;;;;;4.60;4.20;;;21.60;70.20;;;;;;5022839;28;20481;-64
2023/11/10 08:47:40;;;;;;;4.57;4.47;;;21.60;70.20;;;;;;5023011;28;20980;-65
2023/11/10 08:50:10;;;;;;;5.07;4.77;;;21.60;70.00;;;;;;5026157;28;20464;-65
2023/11/10 08:52:40;;;;;;;4.27;4.07;;;21.60;70.00;;;;;;5025526;28;20453;-65
2023/11/10 08:55:10;;;;;;;4.57;4.30;;;21.60;70.00;;;;;;5022574;28;20963;-65
2023/11/10 08:57:39;;;;;;;3.97;3.87;;;21.60;69.90;;;;;;5022755;28;20442;-65
2023/11/10 09:00:11;;;;;;;4.47;4.30;;;21.60;69.70;;;;;;5025928;28;20445;-65
2023/11/10 09:02:39;;;;;;;4.80;4.60;;;21.50;70.30;;;;;;5025401;28;20485;-64
2023/11/10 09:05:07;;;;;;;4.40;4.30;;;21.50;69.50;;;;;;5022449;28;20438;-64
2023/11/10 09:07:34;;;;;;;4.50;4.30;;;21.50;69.30;;;;;;5022373;28;20482;-64
2023/11/10 09:10:01;;;;;;;5.10;4.77;;;21.50;69.30;;;;;;5025715;28;20445;-64
2023/11/10 09:12:28;;;;;;;5.07;4.50;;;21.50;69.30;;;;;;5025706;28;20878;-63
2023/11/10 09:14:55;;;;;;;4.60;4.43;;;21.50;69.30;;;;;;5022917;28;20986;-64
2023/11/10 09:17:24;;;;;;;4.40;4.30;;;21.60;69.20;;;;;;5022041;28;20881;-64
2023/11/10 09:19:51;;;;;;;5.10;4.73;;;21.50;69.20;;;;;;5024050;28;20497;-65
2023/11/10 09:22:18;;;;;;;6.73;4.37;;;21.50;69.00;;;;;;5024285;28;20520;-64
2023/11/10 09:24:45;;;;;;;4.43;4.17;;;21.50;69.00;;;;;;5010350;28;20831;-65
2023/11/10 09:27:12;;;;;;;4.73;4.43;;;21.50;68.80;;;;;;5006624;28;20498;-69
2023/11/10 09:29:40;;;;;;;16.47;4.80;;;21.50;70.10;;;;;;5018293;28;20481;-68
2023/11/10 09:32:10;;;;;;;4.37;4.27;;;21.50;70.20;;;;;;5020514;28;20446;-68
2023/11/10 09:34:38;;;;;;;4.23;4.07;;;21.50;70.10;;;;;;5021758;28;20450;-71
2023/11/10 09:37:05;;;;;;;4.30;4.20;;;21.50;70.00;;;;;;5025209;28;20469;-68
2023/11/10 09:39:32;;;;;;;5.70;4.33;;;21.50;70.00;;;;;;5025065;28;20479;-68
2023/11/10 09:42:06;;;;;;;4.00;3.90;;;21.50;69.90;;;;;;5021814;28;20919;-68
2023/11/10 09:44:37;;;;;;;4.53;4.23;;;21.50;69.90;;;;;;5021713;28;20450;-69
2023/11/10 09:47:05;;;;;;;4.70;4.50;;;21.60;70.00;;;;;;5013695;28;20442;-68
2023/11/10 09:49:32;;;;;;;4.50;4.40;;;21.60;69.80;;;;;;5021598;28;20442;-68
2023/11/10 09:52:02;;;;;;;4.30;4.20;;;21.60;69.80;;;;;;5024390;28;20888;-67
2023/11/10 09:54:31;;;;;;;4.53;4.33;;;21.60;69.70;;;;;;5024842;28;20499;-68
2023/11/10 09:56:59;;;;;;;4.47;4.17;;;21.60;69.70;;;;;;5021894;28;20456;-68
2023/11/10 09:59:31;;;;;;;4.67;4.57;;;21.60;69.60;;;;;;5019910;28;20480;-68
2023/11/10 10:02:00;;;;;;;4.20;4.10;;;21.60;69.60;;;;;;5021831;28;21363;-69
2023/11/10 10:04:27;;;;;;;4.40;4.10;;;21.60;69.60;;;;;;5021328;28;20453;-69
2023/11/10 10:06:57;;;;;;;4.40;4.13;;;21.60;69.50;;;;;;5023439;28;20873;-68
2023/11/10 10:09:27;;;;;;;4.93;4.70;;;21.60;69.40;;;;;;5024824;28;20476;-70
2023/11/10 10:11:56;;;;;;;4.47;4.37;;;21.60;70.10;;;;;;5022344;28;20941;-69
2023/11/10 10:14:23;;;;;;;4.30;4.20;;;21.60;69.30;;;;;;5021005;28;20490;-70
2023/11/10 10:16:53;;;;;;;4.20;4.20;;;21.60;69.10;;;;;;5022622;28;20465;-69
2023/11/10 10:19:24;;;;;;;4.50;4.40;;;21.60;69.00;;;;;;5024328;28;20469;-69
2023/11/10 10:21:52;;;;;;;5.00;4.80;;;21.60;68.90;;;;;;5022509;28;20532;-70
2023/11/10 10:24:19;;;;;;;4.60;4.30;;;21.60;68.80;;;;;;5020867;28;20552;-69
2023/11/10 10:26:48;;;;;;;4.70;4.60;;;21.60;68.90;;;;;;5021737;28;20453;-69
2023/11/10 10:29:18;;;;;;;4.77;4.67;;;21.60;68.70;;;;;;5024333;28;20495;-70
2023/11/10 10:31:45;;;;;;;4.20;4.10;;;21.60;68.60;;;;;;5023209;28;20437;-70
2023/11/10 10:34:12;;;;;;;4.57;4.47;;;21.60;68.50;;;;;;5020492;28;20462;-70
2023/11/10 10:36:39;;;;;;;4.30;4.10;;;21.60;68.40;;;;;;5020682;28;20474;-70
2023/11/10 10:39:10;;;;;;;4.60;4.47;;;21.60;68.30;;;;;;5023957;28;20465;-70
2023/11/10 10:41:38;;;;;;;4.77;4.67;;;21.60;68.30;;;;;;5023888;28;20487;-69
2023/11/10 10:44:08;;;;;;;4.67;4.57;;;21.60;68.30;;;;;;5012567;28;20993;-68
2023/11/10 10:46:37;;;;;;;4.33;4.10;;;21.60;68.20;;;;;;5020440;28;20533;-70
2023/11/10 10:49:06;;;;;;;4.10;4.00;;;21.60;68.20;;;;;;5023693;28;20445;-69
2023/11/10 10:51:36;;;;;;;4.67;4.57;;;21.60;68.90;;;;;;5023844;28;20495;-70
2023/11/10 10:54:05;;;;;;;4.73;4.63;;;21.60;68.10;;;;;;5020459;28;20544;-70
2023/11/10 10:56:34;;;;;;;4.20;4.10;;;21.60;68.10;;;;;;5020324;28;20930;-70
2023/11/10 10:59:01;;;;;;;4.43;4.33;;;21.60;68.10;;;;;;5023011;28;20968;-70
2023/11/10 11:01:29;;;;;;;4.30;4.20;;;21.60;68.10;;;;;;5023727;28;20508;-70
2023/11/10 11:04:21;;;;;;;4.60;4.20;;;21.60;68.10;;;;;;5021125;28;20892;-70
2023/11/10 11:07:01;;;;;;;4.40;4.30;;;21.60;68.10;;;;;;5021091;28;20476;-70
2023/11/10 11:09:45;;;;;;;4.13;4.03;;;21.60;68.10;;;;;;5023638;28;20437;-70
2023/11/10 11:12:45;;;;;;;4.50;4.40;;;21.60;68.10;;;;;;5012935;28;20946;-70
2023/11/10 11:15:19;;;;;;;4.47;4.27;;;21.60;68.30;;;;;;5012752;28;20474;-70
2023/11/10 11:18:21;;;;;;;4.17;4.07;;;21.60;68.40;;;;;;5020626;28;20472;-69
2023/11/10 11:20:50;;;;;;;3.90;3.90;;;21.60;68.40;;;;;;5022270;28;20448;-69
2023/11/10 11:23:21;;;;;;;4.77;4.57;;;21.60;68.30;;;;;;5019859;28;20496;-70
2023/11/10 11:25:57;;;;;;;4.47;4.37;;;21.60;68.30;;;;;;5020764;28;20787;-67
2023/11/10 11:28:26;;;;;;;4.70;4.60;;;21.60;68.40;;;;;;5023291;28;20529;-70
2023/11/10 11:31:08;;;;;;;4.53;4.43;;;21.60;68.40;;;;;;5021450;28;20449;-69
2023/11/10 11:33:45;;;;;;;4.40;4.30;;;21.60;68.30;;;;;;5019722;28;20528;-70
2023/11/10 11:36:14;;;;;;;4.73;4.53;;;21.60;68.20;;;;;;5012472;28;20961;-70
2023/11/10 11:38:41;;;;;;;4.17;4.10;;;21.60;68.20;;;;;;5019869;28;20446;-70
2023/11/10 11:41:09;;;;;;;4.17;4.10;;;21.60;68.20;;;;;;5022966;28;20448;-69
2023/11/10 11:43:36;;;;;;;4.40;4.30;;;21.70;68.20;;;;;;5022976;28;20972;-69
2023/11/10 11:46:04;;;;;;;4.63;4.53;;;21.60;68.10;;;;;;5025110;28;20469;-69
2023/11/10 11:48:35;;;;;;;4.67;4.47;;;21.60;68.10;;;;;;5026213;28;20442;-70
2023/11/10 11:51:04;;;;;;;4.30;4.30;;;21.70;68.10;;;;;;5028808;28;20795;-69
2023/11/10 11:53:31;;;;;;;4.60;4.20;;;21.70;67.90;;;;;;5029354;28;20827;-70
2023/11/10 11:55:58;;;;;;;4.47;4.37;;;21.70;67.90;;;;;;5027414;28;20437;-69
2023/11/10 11:58:25;;;;;;;4.53;4.43;;;21.60;67.70;;;;;;5026028;28;20482;-69
2023/11/10 12:00:53;;;;;;;4.20;4.10;;;21.60;67.60;;;;;;5027504;28;20945;-69
2023/11/10 12:03:20;;;;;;;4.60;4.50;;;21.60;67.40;;;;;;5029265;28;20507;-68
2023/11/10 12:05:47;;;;;;;4.23;4.23;;;21.60;67.30;;;;;;5028675;28;20452;-69
2023/11/10 12:08:17;;;;;;;4.40;4.20;;;21.60;67.30;;;;;;5026166;28;20474;-69
2023/11/10 12:10:45;;;;;;;4.20;4.10;;;21.60;67.20;;;;;;5026187;28;20481;-69
2023/11/10 12:13:13;;;;;;;4.50;4.40;;;21.60;67.20;;;;;;5029319;28;20861;-69
2023/11/10 12:15:41;;;;;;;4.80;4.60;;;21.60;67.30;;;;;;5029448;28;20499;-69
2023/11/10 12:18:08;;;;;;;4.20;4.10;;;21.60;67.20;;;;;;5017858;28;20941;-68
2023/11/10 12:20:36;;;;;;;4.20;4.03;;;21.60;67.10;;;;;;5025992;28;20464;-70
2023/11/10 12:23:04;;;;;;;4.10;4.00;;;21.60;67.10;;;;;;5028418;28;21354;-69
2023/11/10 12:25:38;;;;;;;3.83;3.83;;;21.60;67.00;;;;;;5029262;28;20436;-71
2023/11/10 12:28:10;;;;;;;3.93;3.87;;;21.60;67.00;;;;;;5026231;28;20945;-70
2023/11/10 12:30:37;;;;;;;4.73;4.57;;;21.60;67.20;;;;;;5025917;28;20438;-71
2023/11/10 12:33:04;;;;;;;4.57;4.30;;;21.60;67.00;;;;;;5028541;28;20499;-70
2023/11/10 12:35:32;;;;;;;3.70;3.70;;;21.60;67.00;;;;;;5029138;28;20469;-70
2023/11/10 12:38:01;;;;;;;4.30;4.20;;;21.60;67.20;;;;;;5026928;28;20445;-70
2023/11/10 12:40:28;;;;;;;3.90;3.90;;;21.60;67.20;;;;;;5025674;28;20473;-70
2023/11/10 12:42:58;;;;;;;4.00;4.00;;;21.60;67.30;;;;;;5026988;28;20830;-70
2023/11/10 12:45:26;;;;;;;3.90;3.80;;;21.70;67.40;;;;;;5029073;28;20444;-70
2023/11/10 12:47:53;;;;;;;4.10;4.00;;;21.70;67.40;;;;;;5027796;28;20464;-69
2023/11/10 12:50:22;;;;;;;3.73;3.73;;;21.60;67.20;;;;;;5025729;28;20517;-71